<?xml version="1.0" encoding="UTF-8" standalone="no" ?>
<gpx xmlns="http://www.topografix.com/GPX/1/1" xmlns:xsi="http://www.w3.org/2001/XMLSchema-instance" xsi:schemaLocation="http://www.topografix.com/GPX/1/1 http://www.topografix.com/GPX/1/1/gpx.xsd" version="1.1" creator="VisuGPX - https://www.visugpx.com">
  <metadata>
    <name>SoulainesAubance</name>
    <desc><![CDATA[TCm0CnLFMc gnerando idor: 18813754_20883968_20884331_]]></desc>
  </metadata>
  <trk>
    <name><![CDATA[L'Aubence et ses coteaux-18813754_21km]]></name>
    <extensions>
      <line xmlns="http://www.topografix.com/GPX/gpx_style/0/2">
        <color>00FF00</color>
        <opacity>0.75</opacity>
        <width>8</width>
      </line>
    </extensions>
    <trkseg>
      <trkpt lat="47.36423" lon="-0.52304">
        <ele>53</ele>
        <time>2025-03-13T19:14:36Z</time>
      </trkpt>
      <trkpt lat="47.36415" lon="-0.52303">
        <ele>53</ele>
        <time>2025-03-13T19:14:42Z</time>
      </trkpt>
      <trkpt lat="47.3641" lon="-0.52325">
        <ele>53</ele>
        <time>2025-03-13T19:14:55Z</time>
      </trkpt>
      <trkpt lat="47.36408" lon="-0.52344">
        <ele>54</ele>
        <time>2025-03-13T19:15:05Z</time>
      </trkpt>
      <trkpt lat="47.36411" lon="-0.52385">
        <ele>54</ele>
        <time>2025-03-13T19:15:28Z</time>
      </trkpt>
      <trkpt lat="47.3644" lon="-0.52468">
        <ele>56</ele>
        <time>2025-03-13T19:16:18Z</time>
      </trkpt>
      <trkpt lat="47.36446" lon="-0.52479">
        <ele>56</ele>
        <time>2025-03-13T19:16:26Z</time>
      </trkpt>
      <trkpt lat="47.36449" lon="-0.52485">
        <ele>56</ele>
        <time>2025-03-13T19:16:30Z</time>
      </trkpt>
      <trkpt lat="47.36408" lon="-0.5251">
        <ele>54</ele>
        <time>2025-03-13T19:17:06Z</time>
      </trkpt>
      <trkpt lat="47.36375" lon="-0.52522">
        <ele>53</ele>
        <time>2025-03-13T19:17:33Z</time>
      </trkpt>
      <trkpt lat="47.36329" lon="-0.52517">
        <ele>52</ele>
        <time>2025-03-13T19:18:10Z</time>
      </trkpt>
      <trkpt lat="47.36245" lon="-0.52496">
        <ele>50</ele>
        <time>2025-03-13T19:19:18Z</time>
      </trkpt>
      <trkpt lat="47.3624" lon="-0.52497">
        <ele>50</ele>
        <time>2025-03-13T19:19:22Z</time>
      </trkpt>
      <trkpt lat="47.36245" lon="-0.52496">
        <ele>50</ele>
        <time>2025-03-13T19:19:26Z</time>
      </trkpt>
      <trkpt lat="47.36224" lon="-0.52566">
        <ele>51</ele>
        <time>2025-03-13T19:20:08Z</time>
      </trkpt>
      <trkpt lat="47.36215" lon="-0.52601">
        <ele>52</ele>
        <time>2025-03-13T19:20:28Z</time>
      </trkpt>
      <trkpt lat="47.36187" lon="-0.5269">
        <ele>54</ele>
        <time>2025-03-13T19:21:21Z</time>
      </trkpt>
      <trkpt lat="47.36093" lon="-0.52939">
        <ele>65</ele>
        <time>2025-03-13T19:23:56Z</time>
      </trkpt>
      <trkpt lat="47.36084" lon="-0.52983">
        <ele>66</ele>
        <time>2025-03-13T19:24:21Z</time>
      </trkpt>
      <trkpt lat="47.36071" lon="-0.53076">
        <ele>71</ele>
        <time>2025-03-13T19:25:12Z</time>
      </trkpt>
      <trkpt lat="47.36062" lon="-0.53121">
        <ele>73</ele>
        <time>2025-03-13T19:25:38Z</time>
      </trkpt>
      <trkpt lat="47.36044" lon="-0.53193">
        <ele>75</ele>
        <time>2025-03-13T19:26:19Z</time>
      </trkpt>
      <trkpt lat="47.36004" lon="-0.53311">
        <ele>78</ele>
        <time>2025-03-13T19:27:31Z</time>
      </trkpt>
      <trkpt lat="47.35987" lon="-0.53388">
        <ele>80</ele>
        <time>2025-03-13T19:28:15Z</time>
      </trkpt>
      <trkpt lat="47.35986" lon="-0.53388">
        <ele>80</ele>
        <time>2025-03-13T19:28:16Z</time>
      </trkpt>
      <trkpt lat="47.35941" lon="-0.53372">
        <ele>80</ele>
        <time>2025-03-13T19:28:53Z</time>
      </trkpt>
      <trkpt lat="47.35895" lon="-0.5336">
        <ele>80</ele>
        <time>2025-03-13T19:29:30Z</time>
      </trkpt>
      <trkpt lat="47.35825" lon="-0.53331">
        <ele>80</ele>
        <time>2025-03-13T19:30:28Z</time>
      </trkpt>
      <trkpt lat="47.35763" lon="-0.53308">
        <ele>78</ele>
        <time>2025-03-13T19:31:19Z</time>
      </trkpt>
      <trkpt lat="47.35705" lon="-0.53296">
        <ele>79</ele>
        <time>2025-03-13T19:32:06Z</time>
      </trkpt>
      <trkpt lat="47.35675" lon="-0.53293">
        <ele>79</ele>
        <time>2025-03-13T19:32:30Z</time>
      </trkpt>
      <trkpt lat="47.35617" lon="-0.53278">
        <ele>80</ele>
        <time>2025-03-13T19:33:18Z</time>
      </trkpt>
      <trkpt lat="47.35579" lon="-0.53258">
        <ele>81</ele>
        <time>2025-03-13T19:33:50Z</time>
      </trkpt>
      <trkpt lat="47.35532" lon="-0.53229">
        <ele>81</ele>
        <time>2025-03-13T19:34:31Z</time>
      </trkpt>
      <trkpt lat="47.35494" lon="-0.53213">
        <ele>80</ele>
        <time>2025-03-13T19:35:02Z</time>
      </trkpt>
      <trkpt lat="47.35491" lon="-0.53208">
        <ele>80</ele>
        <time>2025-03-13T19:35:06Z</time>
      </trkpt>
      <trkpt lat="47.35443" lon="-0.5319">
        <ele>79</ele>
        <time>2025-03-13T19:35:46Z</time>
      </trkpt>
      <trkpt lat="47.35372" lon="-0.53177">
        <ele>79</ele>
        <time>2025-03-13T19:36:43Z</time>
      </trkpt>
      <trkpt lat="47.35294" lon="-0.53157">
        <ele>79</ele>
        <time>2025-03-13T19:37:46Z</time>
      </trkpt>
      <trkpt lat="47.35227" lon="-0.5313">
        <ele>79</ele>
        <time>2025-03-13T19:38:42Z</time>
      </trkpt>
      <trkpt lat="47.35185" lon="-0.53102">
        <ele>78</ele>
        <time>2025-03-13T19:39:19Z</time>
      </trkpt>
      <trkpt lat="47.35133" lon="-0.53051">
        <ele>77</ele>
        <time>2025-03-13T19:40:09Z</time>
      </trkpt>
      <trkpt lat="47.3513" lon="-0.53049">
        <ele>77</ele>
        <time>2025-03-13T19:40:11Z</time>
      </trkpt>
      <trkpt lat="47.35048" lon="-0.53191">
        <ele>76</ele>
        <time>2025-03-13T19:41:53Z</time>
      </trkpt>
      <trkpt lat="47.34989" lon="-0.53274">
        <ele>76</ele>
        <time>2025-03-13T19:42:58Z</time>
      </trkpt>
      <trkpt lat="47.34935" lon="-0.53382">
        <ele>77</ele>
        <time>2025-03-13T19:44:11Z</time>
      </trkpt>
      <trkpt lat="47.34892" lon="-0.53448">
        <ele>78</ele>
        <time>2025-03-13T19:45:00Z</time>
      </trkpt>
      <trkpt lat="47.34776" lon="-0.53582">
        <ele>79</ele>
        <time>2025-03-13T19:46:58Z</time>
      </trkpt>
      <trkpt lat="47.3474" lon="-0.53628">
        <ele>80</ele>
        <time>2025-03-13T19:47:36Z</time>
      </trkpt>
      <trkpt lat="47.34626" lon="-0.53818">
        <ele>82</ele>
        <time>2025-03-13T19:49:54Z</time>
      </trkpt>
      <trkpt lat="47.34602" lon="-0.53845">
        <ele>83</ele>
        <time>2025-03-13T19:50:18Z</time>
      </trkpt>
      <trkpt lat="47.34574" lon="-0.53856">
        <ele>83</ele>
        <time>2025-03-13T19:50:41Z</time>
      </trkpt>
      <trkpt lat="47.34571" lon="-0.5386">
        <ele>83</ele>
        <time>2025-03-13T19:50:45Z</time>
      </trkpt>
      <trkpt lat="47.34556" lon="-0.53862">
        <ele>83</ele>
        <time>2025-03-13T19:50:57Z</time>
      </trkpt>
      <trkpt lat="47.34519" lon="-0.53889">
        <ele>84</ele>
        <time>2025-03-13T19:51:30Z</time>
      </trkpt>
      <trkpt lat="47.34464" lon="-0.53948">
        <ele>85</ele>
        <time>2025-03-13T19:52:24Z</time>
      </trkpt>
      <trkpt lat="47.34447" lon="-0.53961">
        <ele>85</ele>
        <time>2025-03-13T19:52:40Z</time>
      </trkpt>
      <trkpt lat="47.34346" lon="-0.5402">
        <ele>87</ele>
        <time>2025-03-13T19:54:07Z</time>
      </trkpt>
      <trkpt lat="47.34342" lon="-0.54017">
        <ele>87</ele>
        <time>2025-03-13T19:54:10Z</time>
      </trkpt>
      <trkpt lat="47.3429" lon="-0.53974">
        <ele>87</ele>
        <time>2025-03-13T19:54:58Z</time>
      </trkpt>
      <trkpt lat="47.34258" lon="-0.53938">
        <ele>87</ele>
        <time>2025-03-13T19:55:30Z</time>
      </trkpt>
      <trkpt lat="47.34231" lon="-0.53898">
        <ele>87</ele>
        <time>2025-03-13T19:56:01Z</time>
      </trkpt>
      <trkpt lat="47.34191" lon="-0.53869">
        <ele>88</ele>
        <time>2025-03-13T19:56:36Z</time>
      </trkpt>
      <trkpt lat="47.34135" lon="-0.53835">
        <ele>88</ele>
        <time>2025-03-13T19:57:25Z</time>
      </trkpt>
      <trkpt lat="47.3405" lon="-0.53792">
        <ele>89</ele>
        <time>2025-03-13T19:58:37Z</time>
      </trkpt>
      <trkpt lat="47.34012" lon="-0.53769">
        <ele>90</ele>
        <time>2025-03-13T19:59:10Z</time>
      </trkpt>
      <trkpt lat="47.33989" lon="-0.53745">
        <ele>90</ele>
        <time>2025-03-13T19:59:32Z</time>
      </trkpt>
      <trkpt lat="47.33963" lon="-0.53703">
        <ele>91</ele>
        <time>2025-03-13T20:00:03Z</time>
      </trkpt>
      <trkpt lat="47.33929" lon="-0.53639">
        <ele>92</ele>
        <time>2025-03-13T20:00:47Z</time>
      </trkpt>
      <trkpt lat="47.33905" lon="-0.53568">
        <ele>92</ele>
        <time>2025-03-13T20:01:30Z</time>
      </trkpt>
      <trkpt lat="47.33905" lon="-0.53567">
        <ele>92</ele>
        <time>2025-03-13T20:01:31Z</time>
      </trkpt>
      <trkpt lat="47.33812" lon="-0.53601">
        <ele>94</ele>
        <time>2025-03-13T20:02:48Z</time>
      </trkpt>
      <trkpt lat="47.338" lon="-0.53608">
        <ele>94</ele>
        <time>2025-03-13T20:02:58Z</time>
      </trkpt>
      <trkpt lat="47.338" lon="-0.53606">
        <ele>94</ele>
        <time>2025-03-13T20:02:59Z</time>
      </trkpt>
      <trkpt lat="47.33791" lon="-0.53583">
        <ele>94</ele>
        <time>2025-03-13T20:03:13Z</time>
      </trkpt>
      <trkpt lat="47.33788" lon="-0.53566">
        <ele>94</ele>
        <time>2025-03-13T20:03:23Z</time>
      </trkpt>
      <trkpt lat="47.33786" lon="-0.53504">
        <ele>94</ele>
        <time>2025-03-13T20:03:57Z</time>
      </trkpt>
      <trkpt lat="47.33795" lon="-0.53446">
        <ele>94</ele>
        <time>2025-03-13T20:04:29Z</time>
      </trkpt>
      <trkpt lat="47.33809" lon="-0.53414">
        <ele>94</ele>
        <time>2025-03-13T20:04:50Z</time>
      </trkpt>
      <trkpt lat="47.33821" lon="-0.5338">
        <ele>94</ele>
        <time>2025-03-13T20:05:10Z</time>
      </trkpt>
      <trkpt lat="47.33823" lon="-0.53337">
        <ele>93</ele>
        <time>2025-03-13T20:05:34Z</time>
      </trkpt>
      <trkpt lat="47.33826" lon="-0.53249">
        <ele>92</ele>
        <time>2025-03-13T20:06:22Z</time>
      </trkpt>
      <trkpt lat="47.33833" lon="-0.53144">
        <ele>95</ele>
        <time>2025-03-13T20:07:19Z</time>
      </trkpt>
      <trkpt lat="47.33826" lon="-0.53073">
        <ele>94</ele>
        <time>2025-03-13T20:07:58Z</time>
      </trkpt>
      <trkpt lat="47.33825" lon="-0.5307">
        <ele>94</ele>
        <time>2025-03-13T20:08:00Z</time>
      </trkpt>
      <trkpt lat="47.33775" lon="-0.53087">
        <ele>96</ele>
        <time>2025-03-13T20:08:41Z</time>
      </trkpt>
      <trkpt lat="47.33755" lon="-0.53102">
        <ele>97</ele>
        <time>2025-03-13T20:08:59Z</time>
      </trkpt>
      <trkpt lat="47.33743" lon="-0.53098">
        <ele>97</ele>
        <time>2025-03-13T20:09:08Z</time>
      </trkpt>
      <trkpt lat="47.33732" lon="-0.53101">
        <ele>98</ele>
        <time>2025-03-13T20:09:17Z</time>
      </trkpt>
      <trkpt lat="47.33704" lon="-0.53103">
        <ele>98</ele>
        <time>2025-03-13T20:09:40Z</time>
      </trkpt>
      <trkpt lat="47.33669" lon="-0.53122">
        <ele>98</ele>
        <time>2025-03-13T20:10:10Z</time>
      </trkpt>
      <trkpt lat="47.33633" lon="-0.53164">
        <ele>98</ele>
        <time>2025-03-13T20:10:46Z</time>
      </trkpt>
      <trkpt lat="47.33633" lon="-0.53164">
        <ele>98</ele>
        <time>2025-03-13T20:10:46Z</time>
      </trkpt>
      <trkpt lat="47.33633" lon="-0.53164">
        <ele>98</ele>
        <time>2025-03-13T20:10:46Z</time>
      </trkpt>
      <trkpt lat="47.3364" lon="-0.53078">
        <ele>97</ele>
        <time>2025-03-13T20:11:33Z</time>
      </trkpt>
      <trkpt lat="47.33645" lon="-0.52987">
        <ele>94</ele>
        <time>2025-03-13T20:12:23Z</time>
      </trkpt>
      <trkpt lat="47.33641" lon="-0.52902">
        <ele>91</ele>
        <time>2025-03-13T20:13:09Z</time>
      </trkpt>
      <trkpt lat="47.3363" lon="-0.52871">
        <ele>91</ele>
        <time>2025-03-13T20:13:28Z</time>
      </trkpt>
      <trkpt lat="47.33608" lon="-0.52853">
        <ele>91</ele>
        <time>2025-03-13T20:13:48Z</time>
      </trkpt>
      <trkpt lat="47.33594" lon="-0.5282">
        <ele>91</ele>
        <time>2025-03-13T20:14:09Z</time>
      </trkpt>
      <trkpt lat="47.3359" lon="-0.52753">
        <ele>90</ele>
        <time>2025-03-13T20:14:46Z</time>
      </trkpt>
      <trkpt lat="47.33597" lon="-0.52709">
        <ele>89</ele>
        <time>2025-03-13T20:15:10Z</time>
      </trkpt>
      <trkpt lat="47.3362" lon="-0.52599">
        <ele>86</ele>
        <time>2025-03-13T20:16:13Z</time>
      </trkpt>
      <trkpt lat="47.33627" lon="-0.52585">
        <ele>86</ele>
        <time>2025-03-13T20:16:22Z</time>
      </trkpt>
      <trkpt lat="47.33706" lon="-0.52496">
        <ele>86</ele>
        <time>2025-03-13T20:17:42Z</time>
      </trkpt>
      <trkpt lat="47.33744" lon="-0.52431">
        <ele>88</ele>
        <time>2025-03-13T20:18:29Z</time>
      </trkpt>
      <trkpt lat="47.33782" lon="-0.52384">
        <ele>89</ele>
        <time>2025-03-13T20:19:08Z</time>
      </trkpt>
      <trkpt lat="47.33805" lon="-0.5237">
        <ele>89</ele>
        <time>2025-03-13T20:19:28Z</time>
      </trkpt>
      <trkpt lat="47.33822" lon="-0.52357">
        <ele>89</ele>
        <time>2025-03-13T20:19:43Z</time>
      </trkpt>
      <trkpt lat="47.33845" lon="-0.5233">
        <ele>90</ele>
        <time>2025-03-13T20:20:07Z</time>
      </trkpt>
      <trkpt lat="47.33856" lon="-0.52312">
        <ele>90</ele>
        <time>2025-03-13T20:20:20Z</time>
      </trkpt>
      <trkpt lat="47.33854" lon="-0.52315">
        <ele>90</ele>
        <time>2025-03-13T20:20:22Z</time>
      </trkpt>
      <trkpt lat="47.33585" lon="-0.51897">
        <ele>81</ele>
        <time>2025-03-13T20:25:35Z</time>
      </trkpt>
      <trkpt lat="47.33561" lon="-0.51871">
        <ele>80</ele>
        <time>2025-03-13T20:25:59Z</time>
      </trkpt>
      <trkpt lat="47.33547" lon="-0.51861">
        <ele>79</ele>
        <time>2025-03-13T20:26:12Z</time>
      </trkpt>
      <trkpt lat="47.33512" lon="-0.51846">
        <ele>78</ele>
        <time>2025-03-13T20:26:41Z</time>
      </trkpt>
      <trkpt lat="47.33513" lon="-0.51844">
        <ele>78</ele>
        <time>2025-03-13T20:26:42Z</time>
      </trkpt>
      <trkpt lat="47.33565" lon="-0.51713">
        <ele>78</ele>
        <time>2025-03-13T20:28:04Z</time>
      </trkpt>
      <trkpt lat="47.33573" lon="-0.5171">
        <ele>78</ele>
        <time>2025-03-13T20:28:11Z</time>
      </trkpt>
      <trkpt lat="47.33585" lon="-0.51651">
        <ele>77</ele>
        <time>2025-03-13T20:28:44Z</time>
      </trkpt>
      <trkpt lat="47.33601" lon="-0.51532">
        <ele>76</ele>
        <time>2025-03-13T20:29:50Z</time>
      </trkpt>
      <trkpt lat="47.33621" lon="-0.51467">
        <ele>76</ele>
        <time>2025-03-13T20:30:29Z</time>
      </trkpt>
      <trkpt lat="47.33653" lon="-0.5141">
        <ele>76</ele>
        <time>2025-03-13T20:31:09Z</time>
      </trkpt>
      <trkpt lat="47.33694" lon="-0.51354">
        <ele>79</ele>
        <time>2025-03-13T20:31:54Z</time>
      </trkpt>
      <trkpt lat="47.33699" lon="-0.51342">
        <ele>80</ele>
        <time>2025-03-13T20:32:02Z</time>
      </trkpt>
      <trkpt lat="47.33702" lon="-0.51314">
        <ele>80</ele>
        <time>2025-03-13T20:32:17Z</time>
      </trkpt>
      <trkpt lat="47.33706" lon="-0.51302">
        <ele>80</ele>
        <time>2025-03-13T20:32:24Z</time>
      </trkpt>
      <trkpt lat="47.33712" lon="-0.51304">
        <ele>80</ele>
        <time>2025-03-13T20:32:29Z</time>
      </trkpt>
      <trkpt lat="47.33731" lon="-0.51291">
        <ele>82</ele>
        <time>2025-03-13T20:32:46Z</time>
      </trkpt>
      <trkpt lat="47.33756" lon="-0.51283">
        <ele>83</ele>
        <time>2025-03-13T20:33:06Z</time>
      </trkpt>
      <trkpt lat="47.33799" lon="-0.51277">
        <ele>84</ele>
        <time>2025-03-13T20:33:41Z</time>
      </trkpt>
      <trkpt lat="47.33843" lon="-0.51249">
        <ele>85</ele>
        <time>2025-03-13T20:34:19Z</time>
      </trkpt>
      <trkpt lat="47.33898" lon="-0.51193">
        <ele>84</ele>
        <time>2025-03-13T20:35:13Z</time>
      </trkpt>
      <trkpt lat="47.33902" lon="-0.51189">
        <ele>84</ele>
        <time>2025-03-13T20:35:17Z</time>
      </trkpt>
      <trkpt lat="47.33911" lon="-0.51207">
        <ele>86.6</ele>
      </trkpt>
      <trkpt lat="47.33916" lon="-0.51215">
        <ele>85</ele>
        <time>2025-03-13T20:35:35Z</time>
      </trkpt>
      <trkpt lat="47.3392" lon="-0.51228">
        <ele>85</ele>
        <time>2025-03-13T20:35:42Z</time>
      </trkpt>
      <trkpt lat="47.34007" lon="-0.51201">
        <ele>84</ele>
        <time>2025-03-13T20:36:54Z</time>
      </trkpt>
      <trkpt lat="47.34046" lon="-0.51186">
        <ele>82</ele>
        <time>2025-03-13T20:37:26Z</time>
      </trkpt>
      <trkpt lat="47.34055" lon="-0.51175">
        <ele>82</ele>
        <time>2025-03-13T20:37:35Z</time>
      </trkpt>
      <trkpt lat="47.34057" lon="-0.51143">
        <ele>81</ele>
        <time>2025-03-13T20:37:53Z</time>
      </trkpt>
      <trkpt lat="47.34077" lon="-0.51076">
        <ele>78</ele>
        <time>2025-03-13T20:38:32Z</time>
      </trkpt>
      <trkpt lat="47.34087" lon="-0.51071">
        <ele>78</ele>
        <time>2025-03-13T20:38:41Z</time>
      </trkpt>
      <trkpt lat="47.3412" lon="-0.51109">
        <ele>78</ele>
        <time>2025-03-13T20:39:14Z</time>
      </trkpt>
      <trkpt lat="47.34189" lon="-0.50985">
        <ele>74</ele>
        <time>2025-03-13T20:40:41Z</time>
      </trkpt>
      <trkpt lat="47.34208" lon="-0.5097">
        <ele>73</ele>
        <time>2025-03-13T20:40:59Z</time>
      </trkpt>
      <trkpt lat="47.34282" lon="-0.50959">
        <ele>71</ele>
        <time>2025-03-13T20:41:58Z</time>
      </trkpt>
      <trkpt lat="47.34407" lon="-0.50956">
        <ele>70</ele>
        <time>2025-03-13T20:43:38Z</time>
      </trkpt>
      <trkpt lat="47.34466" lon="-0.5096">
        <ele>71</ele>
        <time>2025-03-13T20:44:26Z</time>
      </trkpt>
      <trkpt lat="47.34495" lon="-0.50957">
        <ele>71</ele>
        <time>2025-03-13T20:44:49Z</time>
      </trkpt>
      <trkpt lat="47.3452" lon="-0.50925">
        <ele>71</ele>
        <time>2025-03-13T20:45:15Z</time>
      </trkpt>
      <trkpt lat="47.3455" lon="-0.50872">
        <ele>73</ele>
        <time>2025-03-13T20:45:53Z</time>
      </trkpt>
      <trkpt lat="47.34617" lon="-0.50831">
        <ele>71</ele>
        <time>2025-03-13T20:46:51Z</time>
      </trkpt>
      <trkpt lat="47.34627" lon="-0.50818">
        <ele>70</ele>
        <time>2025-03-13T20:47:02Z</time>
      </trkpt>
      <trkpt lat="47.34651" lon="-0.50801">
        <ele>68</ele>
        <time>2025-03-13T20:47:23Z</time>
      </trkpt>
      <trkpt lat="47.34716" lon="-0.50777">
        <ele>68</ele>
        <time>2025-03-13T20:48:17Z</time>
      </trkpt>
      <trkpt lat="47.34731" lon="-0.50777">
        <ele>68</ele>
        <time>2025-03-13T20:48:29Z</time>
      </trkpt>
      <trkpt lat="47.34735" lon="-0.50777">
        <ele>68</ele>
        <time>2025-03-13T20:48:32Z</time>
      </trkpt>
      <trkpt lat="47.34795" lon="-0.50741">
        <ele>68</ele>
        <time>2025-03-13T20:49:24Z</time>
      </trkpt>
      <trkpt lat="47.34821" lon="-0.50718">
        <ele>69</ele>
        <time>2025-03-13T20:49:48Z</time>
      </trkpt>
      <trkpt lat="47.34835" lon="-0.50699">
        <ele>69</ele>
        <time>2025-03-13T20:50:03Z</time>
      </trkpt>
      <trkpt lat="47.3486" lon="-0.50631">
        <ele>67</ele>
        <time>2025-03-13T20:50:45Z</time>
      </trkpt>
      <trkpt lat="47.34878" lon="-0.50598">
        <ele>65</ele>
        <time>2025-03-13T20:51:08Z</time>
      </trkpt>
      <trkpt lat="47.34898" lon="-0.50582">
        <ele>64</ele>
        <time>2025-03-13T20:51:26Z</time>
      </trkpt>
      <trkpt lat="47.34914" lon="-0.50574">
        <ele>64</ele>
        <time>2025-03-13T20:51:40Z</time>
      </trkpt>
      <trkpt lat="47.34935" lon="-0.50555">
        <ele>63</ele>
        <time>2025-03-13T20:52:00Z</time>
      </trkpt>
      <trkpt lat="47.35032" lon="-0.50427">
        <ele>59</ele>
        <time>2025-03-13T20:53:44Z</time>
      </trkpt>
      <trkpt lat="47.3509" lon="-0.50329">
        <ele>59</ele>
        <time>2025-03-13T20:54:54Z</time>
      </trkpt>
      <trkpt lat="47.35102" lon="-0.50316">
        <ele>58</ele>
        <time>2025-03-13T20:55:06Z</time>
      </trkpt>
      <trkpt lat="47.35107" lon="-0.50309">
        <ele>58</ele>
        <time>2025-03-13T20:55:12Z</time>
      </trkpt>
      <trkpt lat="47.35118" lon="-0.50274">
        <ele>58</ele>
        <time>2025-03-13T20:55:33Z</time>
      </trkpt>
      <trkpt lat="47.35126" lon="-0.50254">
        <ele>57</ele>
        <time>2025-03-13T20:55:45Z</time>
      </trkpt>
      <trkpt lat="47.35135" lon="-0.50204">
        <ele>56</ele>
        <time>2025-03-13T20:56:13Z</time>
      </trkpt>
      <trkpt lat="47.35118" lon="-0.50153">
        <ele>54</ele>
        <time>2025-03-13T20:56:44Z</time>
      </trkpt>
      <trkpt lat="47.35117" lon="-0.50067">
        <ele>52</ele>
        <time>2025-03-13T20:57:31Z</time>
      </trkpt>
      <trkpt lat="47.35117" lon="-0.50067">
        <ele>52</ele>
        <time>2025-03-13T20:57:31Z</time>
      </trkpt>
      <trkpt lat="47.35117" lon="-0.50067">
        <ele>52</ele>
        <time>2025-03-13T20:57:31Z</time>
      </trkpt>
      <trkpt lat="47.35099" lon="-0.49938">
        <ele>50</ele>
        <time>2025-03-13T20:58:42Z</time>
      </trkpt>
      <trkpt lat="47.35096" lon="-0.49877">
        <ele>48</ele>
        <time>2025-03-13T20:59:16Z</time>
      </trkpt>
      <trkpt lat="47.35089" lon="-0.49817">
        <ele>47</ele>
        <time>2025-03-13T20:59:49Z</time>
      </trkpt>
      <trkpt lat="47.35092" lon="-0.49807">
        <ele>47</ele>
        <time>2025-03-13T20:59:54Z</time>
      </trkpt>
      <trkpt lat="47.35116" lon="-0.49784">
        <ele>46</ele>
        <time>2025-03-13T21:00:17Z</time>
      </trkpt>
      <trkpt lat="47.35119" lon="-0.49775">
        <ele>46</ele>
        <time>2025-03-13T21:00:23Z</time>
      </trkpt>
      <trkpt lat="47.35103" lon="-0.49718">
        <ele>45</ele>
        <time>2025-03-13T21:00:56Z</time>
      </trkpt>
      <trkpt lat="47.35103" lon="-0.49697">
        <ele>45</ele>
        <time>2025-03-13T21:01:08Z</time>
      </trkpt>
      <trkpt lat="47.35113" lon="-0.49665">
        <ele>45</ele>
        <time>2025-03-13T21:01:27Z</time>
      </trkpt>
      <trkpt lat="47.35116" lon="-0.4966">
        <ele>46</ele>
        <time>2025-03-13T21:01:30Z</time>
      </trkpt>
      <trkpt lat="47.3515" lon="-0.49617">
        <ele>48</ele>
        <time>2025-03-13T21:02:06Z</time>
      </trkpt>
      <trkpt lat="47.35159" lon="-0.49597">
        <ele>49</ele>
        <time>2025-03-13T21:02:19Z</time>
      </trkpt>
      <trkpt lat="47.35163" lon="-0.49566">
        <ele>50</ele>
        <time>2025-03-13T21:02:36Z</time>
      </trkpt>
      <trkpt lat="47.35165" lon="-0.49522">
        <ele>51</ele>
        <time>2025-03-13T21:03:00Z</time>
      </trkpt>
      <trkpt lat="47.35175" lon="-0.49475">
        <ele>54</ele>
        <time>2025-03-13T21:03:27Z</time>
      </trkpt>
      <trkpt lat="47.35196" lon="-0.49428">
        <ele>56</ele>
        <time>2025-03-13T21:03:58Z</time>
      </trkpt>
      <trkpt lat="47.35197" lon="-0.49429">
        <ele>56</ele>
        <time>2025-03-13T21:03:59Z</time>
      </trkpt>
      <trkpt lat="47.35211" lon="-0.4943">
        <ele>56</ele>
        <time>2025-03-13T21:04:10Z</time>
      </trkpt>
      <trkpt lat="47.35229" lon="-0.49424">
        <ele>57</ele>
        <time>2025-03-13T21:04:25Z</time>
      </trkpt>
      <trkpt lat="47.35253" lon="-0.49413">
        <ele>57</ele>
        <time>2025-03-13T21:04:45Z</time>
      </trkpt>
      <trkpt lat="47.35283" lon="-0.49408">
        <ele>53</ele>
        <time>2025-03-13T21:05:09Z</time>
      </trkpt>
      <trkpt lat="47.35341" lon="-0.49403">
        <ele>47</ele>
        <time>2025-03-13T21:05:55Z</time>
      </trkpt>
      <trkpt lat="47.35357" lon="-0.49405">
        <ele>47</ele>
        <time>2025-03-13T21:06:08Z</time>
      </trkpt>
      <trkpt lat="47.35378" lon="-0.49413">
        <ele>46</ele>
        <time>2025-03-13T21:06:26Z</time>
      </trkpt>
      <trkpt lat="47.35399" lon="-0.49439">
        <ele>46</ele>
        <time>2025-03-13T21:06:48Z</time>
      </trkpt>
      <trkpt lat="47.35424" lon="-0.49481">
        <ele>46</ele>
        <time>2025-03-13T21:07:18Z</time>
      </trkpt>
      <trkpt lat="47.35462" lon="-0.4953">
        <ele>46</ele>
        <time>2025-03-13T21:07:58Z</time>
      </trkpt>
      <trkpt lat="47.35463" lon="-0.49532">
        <ele>46</ele>
        <time>2025-03-13T21:08:00Z</time>
      </trkpt>
      <trkpt lat="47.35473" lon="-0.49544">
        <ele>46</ele>
        <time>2025-03-13T21:08:10Z</time>
      </trkpt>
      <trkpt lat="47.35503" lon="-0.49574">
        <ele>46</ele>
        <time>2025-03-13T21:08:39Z</time>
      </trkpt>
      <trkpt lat="47.35529" lon="-0.49603">
        <ele>48</ele>
        <time>2025-03-13T21:09:05Z</time>
      </trkpt>
      <trkpt lat="47.3555" lon="-0.49634">
        <ele>50</ele>
        <time>2025-03-13T21:09:29Z</time>
      </trkpt>
      <trkpt lat="47.35588" lon="-0.49707">
        <ele>56</ele>
        <time>2025-03-13T21:10:19Z</time>
      </trkpt>
      <trkpt lat="47.35634" lon="-0.49764">
        <ele>60</ele>
        <time>2025-03-13T21:11:07Z</time>
      </trkpt>
      <trkpt lat="47.35634" lon="-0.49764">
        <ele>60</ele>
        <time>2025-03-13T21:11:07Z</time>
      </trkpt>
      <trkpt lat="47.35682" lon="-0.49765">
        <ele>61</ele>
        <time>2025-03-13T21:11:45Z</time>
      </trkpt>
      <trkpt lat="47.35703" lon="-0.4976">
        <ele>60</ele>
        <time>2025-03-13T21:12:02Z</time>
      </trkpt>
      <trkpt lat="47.35731" lon="-0.49733">
        <ele>58</ele>
        <time>2025-03-13T21:12:29Z</time>
      </trkpt>
      <trkpt lat="47.35811" lon="-0.49649">
        <ele>54</ele>
        <time>2025-03-13T21:13:48Z</time>
      </trkpt>
      <trkpt lat="47.3589" lon="-0.49562">
        <ele>52</ele>
        <time>2025-03-13T21:15:07Z</time>
      </trkpt>
      <trkpt lat="47.35974" lon="-0.49493">
        <ele>48</ele>
        <time>2025-03-13T21:16:24Z</time>
      </trkpt>
      <trkpt lat="47.35997" lon="-0.4949">
        <ele>47</ele>
        <time>2025-03-13T21:16:42Z</time>
      </trkpt>
      <trkpt lat="47.36023" lon="-0.49475">
        <ele>47</ele>
        <time>2025-03-13T21:17:04Z</time>
      </trkpt>
      <trkpt lat="47.3607" lon="-0.49407">
        <ele>45</ele>
        <time>2025-03-13T21:17:57Z</time>
      </trkpt>
      <trkpt lat="47.36113" lon="-0.49333">
        <ele>45</ele>
        <time>2025-03-13T21:18:50Z</time>
      </trkpt>
      <trkpt lat="47.36112" lon="-0.49332">
        <ele>45</ele>
        <time>2025-03-13T21:18:51Z</time>
      </trkpt>
      <trkpt lat="47.36128" lon="-0.49335">
        <ele>46</ele>
        <time>2025-03-13T21:19:04Z</time>
      </trkpt>
      <trkpt lat="47.36229" lon="-0.49335">
        <ele>50</ele>
        <time>2025-03-13T21:20:25Z</time>
      </trkpt>
      <trkpt lat="47.36252" lon="-0.49339">
        <ele>51</ele>
        <time>2025-03-13T21:20:43Z</time>
      </trkpt>
      <trkpt lat="47.36252" lon="-0.49341">
        <ele>51</ele>
        <time>2025-03-13T21:20:44Z</time>
      </trkpt>
      <trkpt lat="47.36252" lon="-0.49339">
        <ele>51</ele>
        <time>2025-03-13T21:20:45Z</time>
      </trkpt>
      <trkpt lat="47.36322" lon="-0.49072">
        <ele>46</ele>
        <time>2025-03-13T21:23:21Z</time>
      </trkpt>
      <trkpt lat="47.36326" lon="-0.49035">
        <ele>46</ele>
        <time>2025-03-13T21:23:41Z</time>
      </trkpt>
      <trkpt lat="47.36327" lon="-0.48971">
        <ele>46</ele>
        <time>2025-03-13T21:24:16Z</time>
      </trkpt>
      <trkpt lat="47.36332" lon="-0.48946">
        <ele>47</ele>
        <time>2025-03-13T21:24:30Z</time>
      </trkpt>
      <trkpt lat="47.36384" lon="-0.48811">
        <ele>45</ele>
        <time>2025-03-13T21:25:54Z</time>
      </trkpt>
      <trkpt lat="47.36387" lon="-0.48813">
        <ele>45</ele>
        <time>2025-03-13T21:25:57Z</time>
      </trkpt>
      <trkpt lat="47.36437" lon="-0.48848">
        <ele>45</ele>
        <time>2025-03-13T21:26:41Z</time>
      </trkpt>
      <trkpt lat="47.36527" lon="-0.48927">
        <ele>46</ele>
        <time>2025-03-13T21:28:05Z</time>
      </trkpt>
      <trkpt lat="47.36579" lon="-0.48978">
        <ele>45</ele>
        <time>2025-03-13T21:28:55Z</time>
      </trkpt>
      <trkpt lat="47.36659" lon="-0.49034">
        <ele>41</ele>
        <time>2025-03-13T21:30:06Z</time>
      </trkpt>
      <trkpt lat="47.36689" lon="-0.49062">
        <ele>40</ele>
        <time>2025-03-13T21:30:34Z</time>
      </trkpt>
      <trkpt lat="47.36742" lon="-0.49144">
        <ele>40</ele>
        <time>2025-03-13T21:31:36Z</time>
      </trkpt>
      <trkpt lat="47.36754" lon="-0.49155">
        <ele>40</ele>
        <time>2025-03-13T21:31:47Z</time>
      </trkpt>
      <trkpt lat="47.36831" lon="-0.49138">
        <ele>38</ele>
        <time>2025-03-13T21:32:49Z</time>
      </trkpt>
      <trkpt lat="47.36923" lon="-0.49105">
        <ele>37</ele>
        <time>2025-03-13T21:34:05Z</time>
      </trkpt>
      <trkpt lat="47.36928" lon="-0.49103">
        <ele>37</ele>
        <time>2025-03-13T21:34:09Z</time>
      </trkpt>
      <trkpt lat="47.3691" lon="-0.4901">
        <ele>36</ele>
        <time>2025-03-13T21:35:02Z</time>
      </trkpt>
      <trkpt lat="47.37001" lon="-0.4897">
        <ele>36</ele>
        <time>2025-03-13T21:36:18Z</time>
      </trkpt>
      <trkpt lat="47.3699" lon="-0.48906">
        <ele>35</ele>
        <time>2025-03-13T21:36:54Z</time>
      </trkpt>
      <trkpt lat="47.37015" lon="-0.48883">
        <ele>34</ele>
        <time>2025-03-13T21:37:17Z</time>
      </trkpt>
      <trkpt lat="47.3705" lon="-0.48837">
        <ele>34</ele>
        <time>2025-03-13T21:37:55Z</time>
      </trkpt>
      <trkpt lat="47.37071" lon="-0.48819">
        <ele>34</ele>
        <time>2025-03-13T21:38:14Z</time>
      </trkpt>
      <trkpt lat="47.3712" lon="-0.48791">
        <ele>35</ele>
        <time>2025-03-13T21:38:56Z</time>
      </trkpt>
      <trkpt lat="47.37158" lon="-0.48777">
        <ele>34</ele>
        <time>2025-03-13T21:39:28Z</time>
      </trkpt>
      <trkpt lat="47.37182" lon="-0.48779">
        <ele>34</ele>
        <time>2025-03-13T21:39:47Z</time>
      </trkpt>
      <trkpt lat="47.37205" lon="-0.48786">
        <ele>33</ele>
        <time>2025-03-13T21:40:06Z</time>
      </trkpt>
      <trkpt lat="47.37299" lon="-0.48821">
        <ele>32</ele>
        <time>2025-03-13T21:41:23Z</time>
      </trkpt>
      <trkpt lat="47.37302" lon="-0.48823">
        <ele>32</ele>
        <time>2025-03-13T21:41:26Z</time>
      </trkpt>
      <trkpt lat="47.37295" lon="-0.48802">
        <ele>32</ele>
        <time>2025-03-13T21:41:38Z</time>
      </trkpt>
      <trkpt lat="47.37288" lon="-0.48767">
        <ele>31</ele>
        <time>2025-03-13T21:41:58Z</time>
      </trkpt>
      <trkpt lat="47.37286" lon="-0.48745">
        <ele>31</ele>
        <time>2025-03-13T21:42:10Z</time>
      </trkpt>
      <trkpt lat="47.37294" lon="-0.48573">
        <ele>29</ele>
        <time>2025-03-13T21:43:44Z</time>
      </trkpt>
      <trkpt lat="47.37294" lon="-0.48582">
        <ele>29</ele>
        <time>2025-03-13T21:43:49Z</time>
      </trkpt>
      <trkpt lat="47.37395" lon="-0.48532">
        <ele>28</ele>
        <time>2025-03-13T21:45:14Z</time>
      </trkpt>
      <trkpt lat="47.37403" lon="-0.4853">
        <ele>28</ele>
        <time>2025-03-13T21:45:20Z</time>
      </trkpt>
      <trkpt lat="47.37431" lon="-0.48522">
        <ele>29</ele>
        <time>2025-03-13T21:45:43Z</time>
      </trkpt>
      <trkpt lat="47.37446" lon="-0.48514">
        <ele>30</ele>
        <time>2025-03-13T21:45:56Z</time>
      </trkpt>
      <trkpt lat="47.37505" lon="-0.48446">
        <ele>33</ele>
        <time>2025-03-13T21:46:56Z</time>
      </trkpt>
      <trkpt lat="47.37509" lon="-0.48458">
        <ele>33</ele>
        <time>2025-03-13T21:47:03Z</time>
      </trkpt>
      <trkpt lat="47.37642" lon="-0.48819">
        <ele>36</ele>
        <time>2025-03-13T21:50:46Z</time>
      </trkpt>
      <trkpt lat="47.37639" lon="-0.48823">
        <ele>36</ele>
        <time>2025-03-13T21:50:49Z</time>
      </trkpt>
      <trkpt lat="47.3761" lon="-0.48853">
        <ele>35</ele>
        <time>2025-03-13T21:51:18Z</time>
      </trkpt>
      <trkpt lat="47.37573" lon="-0.48875">
        <ele>34</ele>
        <time>2025-03-13T21:51:50Z</time>
      </trkpt>
      <trkpt lat="47.37497" lon="-0.48907">
        <ele>30</ele>
        <time>2025-03-13T21:52:53Z</time>
      </trkpt>
      <trkpt lat="47.37499" lon="-0.48917">
        <ele>30</ele>
        <time>2025-03-13T21:52:59Z</time>
      </trkpt>
      <trkpt lat="47.37501" lon="-0.48929">
        <ele>30</ele>
        <time>2025-03-13T21:53:05Z</time>
      </trkpt>
      <trkpt lat="47.37503" lon="-0.48967">
        <ele>30</ele>
        <time>2025-03-13T21:53:26Z</time>
      </trkpt>
      <trkpt lat="47.37515" lon="-0.49013">
        <ele>31</ele>
        <time>2025-03-13T21:53:53Z</time>
      </trkpt>
      <trkpt lat="47.37518" lon="-0.4903">
        <ele>32</ele>
        <time>2025-03-13T21:54:02Z</time>
      </trkpt>
      <trkpt lat="47.37516" lon="-0.49052">
        <ele>32</ele>
        <time>2025-03-13T21:54:14Z</time>
      </trkpt>
      <trkpt lat="47.3751" lon="-0.49083">
        <ele>32</ele>
        <time>2025-03-13T21:54:32Z</time>
      </trkpt>
      <trkpt lat="47.3749" lon="-0.49131">
        <ele>31</ele>
        <time>2025-03-13T21:55:02Z</time>
      </trkpt>
      <trkpt lat="47.37468" lon="-0.49166">
        <ele>30</ele>
        <time>2025-03-13T21:55:28Z</time>
      </trkpt>
      <trkpt lat="47.37455" lon="-0.49197">
        <ele>29</ele>
        <time>2025-03-13T21:55:48Z</time>
      </trkpt>
      <trkpt lat="47.37446" lon="-0.49224">
        <ele>29</ele>
        <time>2025-03-13T21:56:04Z</time>
      </trkpt>
      <trkpt lat="47.37392" lon="-0.4933">
        <ele>29</ele>
        <time>2025-03-13T21:57:16Z</time>
      </trkpt>
      <trkpt lat="47.37371" lon="-0.49385">
        <ele>30</ele>
        <time>2025-03-13T21:57:50Z</time>
      </trkpt>
      <trkpt lat="47.37354" lon="-0.49455">
        <ele>30</ele>
        <time>2025-03-13T21:58:31Z</time>
      </trkpt>
      <trkpt lat="47.37345" lon="-0.49497">
        <ele>30</ele>
        <time>2025-03-13T21:58:55Z</time>
      </trkpt>
      <trkpt lat="47.37337" lon="-0.4953">
        <ele>29</ele>
        <time>2025-03-13T21:59:14Z</time>
      </trkpt>
      <trkpt lat="47.3733" lon="-0.49603">
        <ele>28</ele>
        <time>2025-03-13T21:59:54Z</time>
      </trkpt>
      <trkpt lat="47.37325" lon="-0.49659">
        <ele>28</ele>
        <time>2025-03-13T22:00:24Z</time>
      </trkpt>
      <trkpt lat="47.37327" lon="-0.49711">
        <ele>27</ele>
        <time>2025-03-13T22:00:52Z</time>
      </trkpt>
      <trkpt lat="47.37324" lon="-0.49718">
        <ele>27</ele>
        <time>2025-03-13T22:00:57Z</time>
      </trkpt>
      <trkpt lat="47.37332" lon="-0.49726">
        <ele>27</ele>
        <time>2025-03-13T22:01:05Z</time>
      </trkpt>
      <trkpt lat="47.37335" lon="-0.49734">
        <ele>27</ele>
        <time>2025-03-13T22:01:10Z</time>
      </trkpt>
      <trkpt lat="47.37365" lon="-0.49814">
        <ele>27</ele>
        <time>2025-03-13T22:01:59Z</time>
      </trkpt>
      <trkpt lat="47.37375" lon="-0.49833">
        <ele>27</ele>
        <time>2025-03-13T22:02:12Z</time>
      </trkpt>
      <trkpt lat="47.3741" lon="-0.49874">
        <ele>27</ele>
        <time>2025-03-13T22:02:48Z</time>
      </trkpt>
      <trkpt lat="47.37415" lon="-0.49868">
        <ele>27</ele>
        <time>2025-03-13T22:02:53Z</time>
      </trkpt>
      <trkpt lat="47.3745" lon="-0.49847">
        <ele>30</ele>
        <time>2025-03-13T22:03:23Z</time>
      </trkpt>
      <trkpt lat="47.37492" lon="-0.49838">
        <ele>32</ele>
        <time>2025-03-13T22:03:57Z</time>
      </trkpt>
      <trkpt lat="47.37561" lon="-0.49809">
        <ele>34</ele>
        <time>2025-03-13T22:04:55Z</time>
      </trkpt>
      <trkpt lat="47.37694" lon="-0.49759">
        <ele>38</ele>
        <time>2025-03-13T22:06:45Z</time>
      </trkpt>
      <trkpt lat="47.37933" lon="-0.49679">
        <ele>41</ele>
        <time>2025-03-13T22:10:01Z</time>
      </trkpt>
      <trkpt lat="47.3795" lon="-0.49675">
        <ele>41</ele>
        <time>2025-03-13T22:10:15Z</time>
      </trkpt>
      <trkpt lat="47.3798" lon="-0.49674">
        <ele>41</ele>
        <time>2025-03-13T22:10:39Z</time>
      </trkpt>
      <trkpt lat="47.38014" lon="-0.49668">
        <ele>41</ele>
        <time>2025-03-13T22:11:06Z</time>
      </trkpt>
      <trkpt lat="47.38014" lon="-0.49677">
        <ele>41</ele>
        <time>2025-03-13T22:11:11Z</time>
      </trkpt>
      <trkpt lat="47.38017" lon="-0.49707">
        <ele>41</ele>
        <time>2025-03-13T22:11:28Z</time>
      </trkpt>
      <trkpt lat="47.38023" lon="-0.49734">
        <ele>41</ele>
        <time>2025-03-13T22:11:43Z</time>
      </trkpt>
      <trkpt lat="47.38042" lon="-0.49799">
        <ele>41</ele>
        <time>2025-03-13T22:12:21Z</time>
      </trkpt>
      <trkpt lat="47.38047" lon="-0.49831">
        <ele>40</ele>
        <time>2025-03-13T22:12:39Z</time>
      </trkpt>
      <trkpt lat="47.38048" lon="-0.49836">
        <ele>40</ele>
        <time>2025-03-13T22:12:42Z</time>
      </trkpt>
      <trkpt lat="47.38103" lon="-0.49825">
        <ele>41</ele>
        <time>2025-03-13T22:13:26Z</time>
      </trkpt>
      <trkpt lat="47.38112" lon="-0.4981">
        <ele>42</ele>
        <time>2025-03-13T22:13:37Z</time>
      </trkpt>
      <trkpt lat="47.3811" lon="-0.49814">
        <ele>42</ele>
        <time>2025-03-13T22:13:40Z</time>
      </trkpt>
      <trkpt lat="47.38125" lon="-0.4983">
        <ele>43</ele>
        <time>2025-03-13T22:13:55Z</time>
      </trkpt>
      <trkpt lat="47.38132" lon="-0.49949">
        <ele>42</ele>
        <time>2025-03-13T22:15:00Z</time>
      </trkpt>
      <trkpt lat="47.38129" lon="-0.49985">
        <ele>42</ele>
        <time>2025-03-13T22:15:19Z</time>
      </trkpt>
      <trkpt lat="47.3813" lon="-0.49973">
        <ele>42</ele>
        <time>2025-03-13T22:15:26Z</time>
      </trkpt>
      <trkpt lat="47.38153" lon="-0.4999">
        <ele>43</ele>
        <time>2025-03-13T22:15:46Z</time>
      </trkpt>
      <trkpt lat="47.38144" lon="-0.50112">
        <ele>44</ele>
        <time>2025-03-13T22:16:53Z</time>
      </trkpt>
      <trkpt lat="47.38317" lon="-0.50137">
        <ele>47</ele>
        <time>2025-03-13T22:19:12Z</time>
      </trkpt>
      <trkpt lat="47.38324" lon="-0.50142">
        <ele>48</ele>
        <time>2025-03-13T22:19:18Z</time>
      </trkpt>
      <trkpt lat="47.38328" lon="-0.50149">
        <ele>48</ele>
        <time>2025-03-13T22:19:23Z</time>
      </trkpt>
      <trkpt lat="47.38335" lon="-0.50144">
        <ele>48</ele>
        <time>2025-03-13T22:19:29Z</time>
      </trkpt>
      <trkpt lat="47.38328" lon="-0.50149">
        <ele>48</ele>
        <time>2025-03-13T22:19:36Z</time>
      </trkpt>
      <trkpt lat="47.38332" lon="-0.50167">
        <ele>48</ele>
        <time>2025-03-13T22:19:46Z</time>
      </trkpt>
      <trkpt lat="47.38331" lon="-0.50237">
        <ele>48</ele>
        <time>2025-03-13T22:20:24Z</time>
      </trkpt>
      <trkpt lat="47.38337" lon="-0.50375">
        <ele>50</ele>
        <time>2025-03-13T22:21:39Z</time>
      </trkpt>
      <trkpt lat="47.38341" lon="-0.504">
        <ele>51</ele>
        <time>2025-03-13T22:21:53Z</time>
      </trkpt>
      <trkpt lat="47.38387" lon="-0.50568">
        <ele>50</ele>
        <time>2025-03-13T22:23:31Z</time>
      </trkpt>
      <trkpt lat="47.38386" lon="-0.50563">
        <ele>50</ele>
        <time>2025-03-13T22:23:34Z</time>
      </trkpt>
      <trkpt lat="47.38365" lon="-0.50611">
        <ele>49</ele>
        <time>2025-03-13T22:24:05Z</time>
      </trkpt>
      <trkpt lat="47.38358" lon="-0.50622">
        <ele>49</ele>
        <time>2025-03-13T22:24:13Z</time>
      </trkpt>
      <trkpt lat="47.38327" lon="-0.50644">
        <ele>48</ele>
        <time>2025-03-13T22:24:41Z</time>
      </trkpt>
      <trkpt lat="47.38312" lon="-0.5065">
        <ele>48</ele>
        <time>2025-03-13T22:24:53Z</time>
      </trkpt>
      <trkpt lat="47.38298" lon="-0.50647">
        <ele>48</ele>
        <time>2025-03-13T22:25:04Z</time>
      </trkpt>
      <trkpt lat="47.38253" lon="-0.50624">
        <ele>48</ele>
        <time>2025-03-13T22:25:42Z</time>
      </trkpt>
      <trkpt lat="47.38236" lon="-0.50621">
        <ele>48</ele>
        <time>2025-03-13T22:25:56Z</time>
      </trkpt>
      <trkpt lat="47.38203" lon="-0.50623">
        <ele>46</ele>
        <time>2025-03-13T22:26:23Z</time>
      </trkpt>
      <trkpt lat="47.38101" lon="-0.5064">
        <ele>42</ele>
        <time>2025-03-13T22:27:45Z</time>
      </trkpt>
      <trkpt lat="47.38082" lon="-0.50657">
        <ele>41</ele>
        <time>2025-03-13T22:28:03Z</time>
      </trkpt>
      <trkpt lat="47.3806" lon="-0.50685">
        <ele>40</ele>
        <time>2025-03-13T22:28:26Z</time>
      </trkpt>
      <trkpt lat="47.38063" lon="-0.5069">
        <ele>40</ele>
        <time>2025-03-13T22:28:29Z</time>
      </trkpt>
      <trkpt lat="47.3807" lon="-0.50724">
        <ele>40</ele>
        <time>2025-03-13T22:28:49Z</time>
      </trkpt>
      <trkpt lat="47.38073" lon="-0.50793">
        <ele>40</ele>
        <time>2025-03-13T22:29:26Z</time>
      </trkpt>
      <trkpt lat="47.38069" lon="-0.50847">
        <ele>42</ele>
        <time>2025-03-13T22:29:56Z</time>
      </trkpt>
      <trkpt lat="47.38059" lon="-0.50866">
        <ele>43</ele>
        <time>2025-03-13T22:30:09Z</time>
      </trkpt>
      <trkpt lat="47.38054" lon="-0.50945">
        <ele>47</ele>
        <time>2025-03-13T22:30:52Z</time>
      </trkpt>
      <trkpt lat="47.38044" lon="-0.50988">
        <ele>49</ele>
        <time>2025-03-13T22:31:16Z</time>
      </trkpt>
      <trkpt lat="47.38042" lon="-0.5106">
        <ele>53</ele>
        <time>2025-03-13T22:31:55Z</time>
      </trkpt>
      <trkpt lat="47.38073" lon="-0.51116">
        <ele>55</ele>
        <time>2025-03-13T22:32:35Z</time>
      </trkpt>
      <trkpt lat="47.38087" lon="-0.51201">
        <ele>57</ele>
        <time>2025-03-13T22:33:22Z</time>
      </trkpt>
      <trkpt lat="47.38052" lon="-0.51203">
        <ele>56</ele>
        <time>2025-03-13T22:33:50Z</time>
      </trkpt>
      <trkpt lat="47.3797" lon="-0.51201">
        <ele>54</ele>
        <time>2025-03-13T22:34:56Z</time>
      </trkpt>
      <trkpt lat="47.3792" lon="-0.51212">
        <ele>53</ele>
        <time>2025-03-13T22:35:36Z</time>
      </trkpt>
      <trkpt lat="47.37918" lon="-0.5121">
        <ele>53</ele>
        <time>2025-03-13T22:35:38Z</time>
      </trkpt>
      <trkpt lat="47.3792" lon="-0.51212">
        <ele>53</ele>
        <time>2025-03-13T22:35:40Z</time>
      </trkpt>
      <trkpt lat="47.37876" lon="-0.51238">
        <ele>49</ele>
        <time>2025-03-13T22:36:18Z</time>
      </trkpt>
      <trkpt lat="47.37744" lon="-0.51336">
        <ele>45</ele>
        <time>2025-03-13T22:38:16Z</time>
      </trkpt>
      <trkpt lat="47.37675" lon="-0.51395">
        <ele>46</ele>
        <time>2025-03-13T22:39:20Z</time>
      </trkpt>
      <trkpt lat="47.37497" lon="-0.51496">
        <ele>25</ele>
        <time>2025-03-13T22:41:53Z</time>
      </trkpt>
      <trkpt lat="47.37519" lon="-0.51504">
        <ele>27</ele>
        <time>2025-03-13T22:42:11Z</time>
      </trkpt>
      <trkpt lat="47.37527" lon="-0.51507">
        <ele>28</ele>
        <time>2025-03-13T22:42:18Z</time>
      </trkpt>
      <trkpt lat="47.37525" lon="-0.51514">
        <ele>27</ele>
        <time>2025-03-13T22:42:22Z</time>
      </trkpt>
      <trkpt lat="47.3754" lon="-0.51604">
        <ele>26</ele>
        <time>2025-03-13T22:43:12Z</time>
      </trkpt>
      <trkpt lat="47.37577" lon="-0.51738">
        <ele>24</ele>
        <time>2025-03-13T22:44:31Z</time>
      </trkpt>
      <trkpt lat="47.37591" lon="-0.51771">
        <ele>24</ele>
        <time>2025-03-13T22:44:52Z</time>
      </trkpt>
      <trkpt lat="47.37588" lon="-0.518">
        <ele>23</ele>
        <time>2025-03-13T22:45:08Z</time>
      </trkpt>
      <trkpt lat="47.37547" lon="-0.51855">
        <ele>22</ele>
        <time>2025-03-13T22:45:52Z</time>
      </trkpt>
      <trkpt lat="47.37528" lon="-0.51875">
        <ele>22</ele>
        <time>2025-03-13T22:46:11Z</time>
      </trkpt>
      <trkpt lat="47.37514" lon="-0.51885">
        <ele>23</ele>
        <time>2025-03-13T22:46:23Z</time>
      </trkpt>
      <trkpt lat="47.37509" lon="-0.51895">
        <ele>23</ele>
        <time>2025-03-13T22:46:30Z</time>
      </trkpt>
      <trkpt lat="47.37477" lon="-0.51927">
        <ele>24</ele>
        <time>2025-03-13T22:47:01Z</time>
      </trkpt>
      <trkpt lat="47.37473" lon="-0.51934">
        <ele>25</ele>
        <time>2025-03-13T22:47:06Z</time>
      </trkpt>
      <trkpt lat="47.37468" lon="-0.51948">
        <ele>25</ele>
        <time>2025-03-13T22:47:14Z</time>
      </trkpt>
      <trkpt lat="47.37471" lon="-0.51973">
        <ele>25</ele>
        <time>2025-03-13T22:47:28Z</time>
      </trkpt>
      <trkpt lat="47.37467" lon="-0.51995">
        <ele>26</ele>
        <time>2025-03-13T22:47:40Z</time>
      </trkpt>
      <trkpt lat="47.37447" lon="-0.52071">
        <ele>29</ele>
        <time>2025-03-13T22:48:25Z</time>
      </trkpt>
      <trkpt lat="47.37434" lon="-0.52132">
        <ele>31</ele>
        <time>2025-03-13T22:48:59Z</time>
      </trkpt>
      <trkpt lat="47.37434" lon="-0.52153">
        <ele>32</ele>
        <time>2025-03-13T22:49:11Z</time>
      </trkpt>
      <trkpt lat="47.37439" lon="-0.52166">
        <ele>32</ele>
        <time>2025-03-13T22:49:19Z</time>
      </trkpt>
      <trkpt lat="47.37451" lon="-0.5219">
        <ele>33</ele>
        <time>2025-03-13T22:49:35Z</time>
      </trkpt>
      <trkpt lat="47.37478" lon="-0.52208">
        <ele>33</ele>
        <time>2025-03-13T22:49:59Z</time>
      </trkpt>
      <trkpt lat="47.37493" lon="-0.52215">
        <ele>33</ele>
        <time>2025-03-13T22:50:11Z</time>
      </trkpt>
      <trkpt lat="47.37548" lon="-0.52219">
        <ele>36</ele>
        <time>2025-03-13T22:50:55Z</time>
      </trkpt>
      <trkpt lat="47.37568" lon="-0.52224">
        <ele>37</ele>
        <time>2025-03-13T22:51:12Z</time>
      </trkpt>
      <trkpt lat="47.37631" lon="-0.52258">
        <ele>41</ele>
        <time>2025-03-13T22:52:05Z</time>
      </trkpt>
      <trkpt lat="47.37654" lon="-0.52259">
        <ele>42</ele>
        <time>2025-03-13T22:52:24Z</time>
      </trkpt>
      <trkpt lat="47.37728" lon="-0.52247">
        <ele>43</ele>
        <time>2025-03-13T22:53:23Z</time>
      </trkpt>
      <trkpt lat="47.37733" lon="-0.52259">
        <ele>43</ele>
        <time>2025-03-13T22:53:31Z</time>
      </trkpt>
      <trkpt lat="47.37739" lon="-0.52256">
        <ele>43</ele>
        <time>2025-03-13T22:53:36Z</time>
      </trkpt>
      <trkpt lat="47.37775" lon="-0.52259">
        <ele>43</ele>
        <time>2025-03-13T22:54:05Z</time>
      </trkpt>
      <trkpt lat="47.37784" lon="-0.52253">
        <ele>43</ele>
        <time>2025-03-13T22:54:13Z</time>
      </trkpt>
      <trkpt lat="47.37785" lon="-0.52253">
        <ele>43</ele>
        <time>2025-03-13T22:54:14Z</time>
      </trkpt>
      <trkpt lat="47.37788" lon="-0.52258">
        <ele>43</ele>
        <time>2025-03-13T22:54:17Z</time>
      </trkpt>
      <trkpt lat="47.37799" lon="-0.52313">
        <ele>43</ele>
        <time>2025-03-13T22:54:48Z</time>
      </trkpt>
      <trkpt lat="47.37828" lon="-0.52314">
        <ele>42</ele>
        <time>2025-03-13T22:55:12Z</time>
      </trkpt>
      <trkpt lat="47.37838" lon="-0.52319">
        <ele>42</ele>
        <time>2025-03-13T22:55:20Z</time>
      </trkpt>
      <trkpt lat="47.37839" lon="-0.52318">
        <ele>42</ele>
        <time>2025-03-13T22:55:21Z</time>
      </trkpt>
      <trkpt lat="47.37838" lon="-0.52319">
        <ele>42</ele>
        <time>2025-03-13T22:55:22Z</time>
      </trkpt>
      <trkpt lat="47.37829" lon="-0.52342">
        <ele>42</ele>
        <time>2025-03-13T22:55:36Z</time>
      </trkpt>
      <trkpt lat="47.37789" lon="-0.52383">
        <ele>43</ele>
        <time>2025-03-13T22:56:15Z</time>
      </trkpt>
      <trkpt lat="47.37748" lon="-0.52415">
        <ele>44</ele>
        <time>2025-03-13T22:56:52Z</time>
      </trkpt>
      <trkpt lat="47.37744" lon="-0.52417">
        <ele>44</ele>
        <time>2025-03-13T22:56:56Z</time>
      </trkpt>
      <trkpt lat="47.37754" lon="-0.52478">
        <ele>45</ele>
        <time>2025-03-13T22:57:30Z</time>
      </trkpt>
      <trkpt lat="47.37755" lon="-0.52482">
        <ele>45</ele>
        <time>2025-03-13T22:57:32Z</time>
      </trkpt>
      <trkpt lat="47.3772" lon="-0.52505">
        <ele>45</ele>
        <time>2025-03-13T22:58:03Z</time>
      </trkpt>
      <trkpt lat="47.37645" lon="-0.52543">
        <ele>43</ele>
        <time>2025-03-13T22:59:06Z</time>
      </trkpt>
      <trkpt lat="47.37645" lon="-0.52547">
        <ele>43</ele>
        <time>2025-03-13T22:59:08Z</time>
      </trkpt>
      <trkpt lat="47.37645" lon="-0.52633">
        <ele>43</ele>
        <time>2025-03-13T22:59:55Z</time>
      </trkpt>
      <trkpt lat="47.37646" lon="-0.5281">
        <ele>48</ele>
        <time>2025-03-13T23:01:31Z</time>
      </trkpt>
      <trkpt lat="47.3763" lon="-0.5284">
        <ele>49</ele>
        <time>2025-03-13T23:01:52Z</time>
      </trkpt>
      <trkpt lat="47.37568" lon="-0.52922">
        <ele>50</ele>
        <time>2025-03-13T23:02:58Z</time>
      </trkpt>
      <trkpt lat="47.37556" lon="-0.52932">
        <ele>50</ele>
        <time>2025-03-13T23:03:09Z</time>
      </trkpt>
      <trkpt lat="47.3753" lon="-0.52946">
        <ele>51</ele>
        <time>2025-03-13T23:03:32Z</time>
      </trkpt>
      <trkpt lat="47.37487" lon="-0.52975">
        <ele>53</ele>
        <time>2025-03-13T23:04:09Z</time>
      </trkpt>
      <trkpt lat="47.3747" lon="-0.52992">
        <ele>54</ele>
        <time>2025-03-13T23:04:26Z</time>
      </trkpt>
      <trkpt lat="47.37463" lon="-0.53002">
        <ele>55</ele>
        <time>2025-03-13T23:04:34Z</time>
      </trkpt>
      <trkpt lat="47.37453" lon="-0.53021">
        <ele>55</ele>
        <time>2025-03-13T23:04:47Z</time>
      </trkpt>
      <trkpt lat="47.37443" lon="-0.53049">
        <ele>56</ele>
        <time>2025-03-13T23:05:04Z</time>
      </trkpt>
      <trkpt lat="47.37421" lon="-0.53128">
        <ele>58</ele>
        <time>2025-03-13T23:05:50Z</time>
      </trkpt>
      <trkpt lat="47.37394" lon="-0.532">
        <ele>58</ele>
        <time>2025-03-13T23:06:35Z</time>
      </trkpt>
      <trkpt lat="47.37356" lon="-0.53272">
        <ele>57</ele>
        <time>2025-03-13T23:07:24Z</time>
      </trkpt>
      <trkpt lat="47.3733" lon="-0.53308">
        <ele>57</ele>
        <time>2025-03-13T23:07:53Z</time>
      </trkpt>
      <trkpt lat="47.37296" lon="-0.53347">
        <ele>58</ele>
        <time>2025-03-13T23:08:27Z</time>
      </trkpt>
      <trkpt lat="47.37281" lon="-0.53362">
        <ele>58</ele>
        <time>2025-03-13T23:08:42Z</time>
      </trkpt>
      <trkpt lat="47.37232" lon="-0.53386">
        <ele>59</ele>
        <time>2025-03-13T23:09:23Z</time>
      </trkpt>
      <trkpt lat="47.37192" lon="-0.53398">
        <ele>60</ele>
        <time>2025-03-13T23:09:56Z</time>
      </trkpt>
      <trkpt lat="47.37139" lon="-0.53405">
        <ele>61</ele>
        <time>2025-03-13T23:10:39Z</time>
      </trkpt>
      <trkpt lat="47.37137" lon="-0.53405">
        <ele>61</ele>
        <time>2025-03-13T23:10:40Z</time>
      </trkpt>
      <trkpt lat="47.37107" lon="-0.53403">
        <ele>61</ele>
        <time>2025-03-13T23:11:04Z</time>
      </trkpt>
      <trkpt lat="47.3707" lon="-0.53309">
        <ele>61</ele>
        <time>2025-03-13T23:12:03Z</time>
      </trkpt>
      <trkpt lat="47.37015" lon="-0.53201">
        <ele>60</ele>
        <time>2025-03-13T23:13:16Z</time>
      </trkpt>
      <trkpt lat="47.36995" lon="-0.53172">
        <ele>60</ele>
        <time>2025-03-13T23:13:39Z</time>
      </trkpt>
      <trkpt lat="47.36947" lon="-0.53168">
        <ele>59</ele>
        <time>2025-03-13T23:14:17Z</time>
      </trkpt>
      <trkpt lat="47.36903" lon="-0.53172">
        <ele>58</ele>
        <time>2025-03-13T23:14:53Z</time>
      </trkpt>
      <trkpt lat="47.36877" lon="-0.53169">
        <ele>59</ele>
        <time>2025-03-13T23:15:13Z</time>
      </trkpt>
      <trkpt lat="47.36805" lon="-0.53141">
        <ele>59</ele>
        <time>2025-03-13T23:16:13Z</time>
      </trkpt>
      <trkpt lat="47.36792" lon="-0.53132">
        <ele>59</ele>
        <time>2025-03-13T23:16:25Z</time>
      </trkpt>
      <trkpt lat="47.36784" lon="-0.53119">
        <ele>60</ele>
        <time>2025-03-13T23:16:34Z</time>
      </trkpt>
      <trkpt lat="47.36762" lon="-0.52986">
        <ele>59</ele>
        <time>2025-03-13T23:17:48Z</time>
      </trkpt>
      <trkpt lat="47.36738" lon="-0.52876">
        <ele>60</ele>
        <time>2025-03-13T23:18:51Z</time>
      </trkpt>
      <trkpt lat="47.36739" lon="-0.5285">
        <ele>60</ele>
        <time>2025-03-13T23:19:05Z</time>
      </trkpt>
      <trkpt lat="47.36736" lon="-0.52826">
        <ele>60</ele>
        <time>2025-03-13T23:19:18Z</time>
      </trkpt>
      <trkpt lat="47.36729" lon="-0.52797">
        <ele>60</ele>
        <time>2025-03-13T23:19:35Z</time>
      </trkpt>
      <trkpt lat="47.36715" lon="-0.5275">
        <ele>61</ele>
        <time>2025-03-13T23:20:03Z</time>
      </trkpt>
      <trkpt lat="47.36703" lon="-0.52717">
        <ele>62</ele>
        <time>2025-03-13T23:20:23Z</time>
      </trkpt>
      <trkpt lat="47.3668" lon="-0.5267">
        <ele>63</ele>
        <time>2025-03-13T23:20:55Z</time>
      </trkpt>
      <trkpt lat="47.36649" lon="-0.52621">
        <ele>64</ele>
        <time>2025-03-13T23:21:31Z</time>
      </trkpt>
      <trkpt lat="47.36645" lon="-0.52607">
        <ele>64</ele>
        <time>2025-03-13T23:21:39Z</time>
      </trkpt>
      <trkpt lat="47.36645" lon="-0.526">
        <ele>64</ele>
        <time>2025-03-13T23:21:43Z</time>
      </trkpt>
      <trkpt lat="47.36605" lon="-0.52576">
        <ele>63</ele>
        <time>2025-03-13T23:22:18Z</time>
      </trkpt>
      <trkpt lat="47.36526" lon="-0.52535">
        <ele>60</ele>
        <time>2025-03-13T23:23:25Z</time>
      </trkpt>
      <trkpt lat="47.36511" lon="-0.52531">
        <ele>60</ele>
        <time>2025-03-13T23:23:37Z</time>
      </trkpt>
      <trkpt lat="47.36508" lon="-0.52525">
        <ele>60</ele>
        <time>2025-03-13T23:23:41Z</time>
      </trkpt>
      <trkpt lat="47.36502" lon="-0.52527">
        <ele>59</ele>
        <time>2025-03-13T23:23:46Z</time>
      </trkpt>
      <trkpt lat="47.36494" lon="-0.52518">
        <ele>59</ele>
        <time>2025-03-13T23:23:54Z</time>
      </trkpt>
      <trkpt lat="47.36463" lon="-0.52499">
        <ele>57</ele>
        <time>2025-03-13T23:24:21Z</time>
      </trkpt>
      <trkpt lat="47.36455" lon="-0.52491">
        <ele>56</ele>
        <time>2025-03-13T23:24:29Z</time>
      </trkpt>
      <trkpt lat="47.36449" lon="-0.52485">
        <ele>56</ele>
        <time>2025-03-13T23:24:34Z</time>
      </trkpt>
      <trkpt lat="47.3644" lon="-0.52468">
        <ele>56</ele>
        <time>2025-03-13T23:24:46Z</time>
      </trkpt>
      <trkpt lat="47.36411" lon="-0.52385">
        <ele>54</ele>
        <time>2025-03-13T23:25:37Z</time>
      </trkpt>
      <trkpt lat="47.36408" lon="-0.52344">
        <ele>54</ele>
        <time>2025-03-13T23:25:59Z</time>
      </trkpt>
      <trkpt lat="47.3641" lon="-0.52325">
        <ele>53</ele>
        <time>2025-03-13T23:26:10Z</time>
      </trkpt>
      <trkpt lat="47.36415" lon="-0.52303">
        <ele>53</ele>
        <time>2025-03-13T23:26:22Z</time>
      </trkpt>
      <trkpt lat="47.36408" lon="-0.52301">
        <ele>53</ele>
        <time>2025-03-13T23:26:28Z</time>
        <extensions>
          <visugpx:TrkExtension xmlns:visugpx="https://www.visugpx.com/editgpx/">
            <visugpx:node>1</visugpx:node>
            </visugpx:TrkExtension>
        </extensions>
      </trkpt>
    </trkseg>
  </trk>
</gpx>